createdAt,value
2022-08-09T00:00:11.891Z,100333.81
2022-08-09T00:02:42.819Z,100351.19
2022-08-09T00:06:18.917Z,100295.97
2022-08-09T00:08:03.477Z,100299.13
2022-08-09T00:10:31.683Z,100341.66
2022-08-09T00:13:02.625Z,100332.69
2022-08-09T00:15:57.610Z,100317.78
2022-08-09T00:18:18.600Z,100284.81
2022-08-09T00:20:50.256Z,100287.81
2022-08-09T00:23:57.540Z,100309.56
2022-08-09T00:26:07.622Z,100287.81
2022-08-09T00:28:35.225Z,100314.56
2022-08-09T00:31:30.480Z,100309.84
2022-08-09T00:33:52.110Z,100293.22
2022-08-09T00:36:20.508Z,100322.44
2022-08-09T00:38:50.695Z,100236.72
2022-08-09T00:44:11.478Z,100291.22
2022-08-09T00:44:24.613Z,100306.84
2022-08-09T00:46:57.528Z,100234.59
2022-08-09T00:49:31.969Z,100299.94
2022-08-09T00:52:02.180Z,100280.66
2022-08-09T00:54:36.287Z,100276.66
2022-08-09T00:57:08.799Z,100289.06
2022-08-09T00:59:41.156Z,100277.81
2022-08-09T01:02:20.665Z,100294.22
2022-08-09T01:05:22.187Z,100284.47
2022-08-09T01:07:59.984Z,100296.78
2022-08-09T01:10:43.923Z,100288.63
2022-08-09T01:13:22.423Z,100283.84
2022-08-09T01:15:54.666Z,100257.50
2022-08-09T01:18:30.410Z,100254.66
2022-08-09T01:21:44.609Z,100271.56
2022-08-09T01:24:31.359Z,100248.25
2022-08-09T01:27:05.474Z,100260.44
2022-08-09T01:29:55.942Z,100267.56
2022-08-09T01:32:32.141Z,100216.34
2022-08-09T01:35:37.433Z,100230.28
2022-08-09T01:38:09.553Z,100241.13
2022-08-09T01:40:42.247Z,100226.81
2022-08-09T01:43:11.231Z,100212.50
2022-08-09T01:45:44.741Z,100248.91
2022-08-09T01:48:19.957Z,100247.28
2022-08-09T01:50:58.609Z,100231.22
2022-08-09T01:53:29.232Z,100241.72
2022-08-09T01:56:10.851Z,100241.31
2022-08-09T01:58:39.229Z,100232.34
2022-08-09T02:01:07.998Z,100234.72
2022-08-09T02:03:36.823Z,100241.53
2022-08-09T02:06:06.502Z,100213.91
2022-08-09T02:08:57.731Z,100218.84
2022-08-09T02:11:42.851Z,100233.63
2022-08-09T02:14:15.018Z,100223.09
2022-08-09T02:17:14.815Z,100208.13
2022-08-09T02:19:43.073Z,100195.25
2022-08-09T02:22:38.529Z,100224.06
2022-08-09T02:25:29.840Z,100190.78
2022-08-09T02:28:04.026Z,100223.53
2022-08-09T02:30:55.053Z,100219.06
2022-08-09T02:33:38.265Z,100234.25
2022-08-09T02:36:18.462Z,100182.75
2022-08-09T02:38:53.176Z,100223.97
2022-08-09T02:41:27.202Z,100211.59
2022-08-09T02:44:01.084Z,100204.25
2022-08-09T02:46:38.640Z,100215.34
2022-08-09T02:49:11.214Z,100198.47
2022-08-09T02:51:41.843Z,100221.31
2022-08-09T02:54:14.885Z,100229.13
2022-08-09T02:56:51.024Z,100225.47
2022-08-09T02:59:26.478Z,100225.38
2022-08-09T03:02:07.143Z,100159.09
2022-08-09T03:04:41.070Z,100191.31
2022-08-09T03:07:13.892Z,100222.38
2022-08-09T03:09:43.569Z,100218.81
2022-08-09T03:12:24.789Z,100167.16
2022-08-09T03:14:54.131Z,100132.25
2022-08-09T03:17:27.218Z,100165.75
2022-08-09T03:20:03.366Z,100202.34
2022-08-09T03:22:41.856Z,100209.31
2022-08-09T03:25:21.644Z,100172.81
2022-08-09T03:27:55.611Z,100188.44
2022-08-09T03:30:29.350Z,100217.88
2022-08-09T03:33:13.048Z,100211.84
2022-08-09T03:36:13.893Z,100207.72
2022-08-09T03:38:34.590Z,100199.19
2022-08-09T03:41:01.472Z,100169.41
2022-08-09T03:43:31.830Z,100221.50
2022-08-09T03:46:02.942Z,100206.81
2022-08-09T03:48:32.561Z,100127.50
2022-08-09T03:51:07.293Z,100216.75
2022-08-09T03:53:55.209Z,100212.69
2022-08-09T03:56:26.038Z,100192.41
2022-08-09T03:58:54.601Z,100167.63
2022-08-09T04:01:24.859Z,100219.97
2022-08-09T04:04:02.308Z,100114.41
2022-08-09T04:06:31.955Z,100221.59
2022-08-09T04:09:02.835Z,100200.59
2022-08-09T04:12:08.321Z,100161.28
2022-08-09T04:15:01.113Z,100154.16
2022-08-09T04:17:26.543Z,100188.84
2022-08-09T04:19:56.739Z,100197.56
2022-08-09T04:22:23.930Z,100162.63
2022-08-09T04:24:54.980Z,100156.25
2022-08-09T04:27:22.172Z,100211.72
2022-08-09T04:29:51.003Z,100195.66
2022-08-09T04:32:31.228Z,100203.00
2022-08-09T04:34:58.551Z,100185.19
2022-08-09T04:37:45.050Z,100197.56
2022-08-09T04:40:18.962Z,100215.19
2022-08-09T04:42:56.823Z,100220.31
2022-08-09T04:45:24.117Z,100215.09
2022-08-09T04:48:01.075Z,100183.78
2022-08-09T04:50:31.745Z,100191.69
2022-08-09T04:53:02.678Z,100195.34
2022-08-09T04:55:35.405Z,100196.19
2022-08-09T04:58:17.759Z,100140.28
2022-08-09T05:00:44.965Z,100208.94
2022-08-09T05:03:40.301Z,100225.13
2022-08-09T05:06:07.076Z,100214.38
2022-08-09T05:11:06.746Z,100224.75
2022-08-09T05:13:34.498Z,100230.03
2022-08-09T05:16:07.081Z,100223.63
2022-08-09T05:18:39.043Z,100216.03
2022-08-09T05:21:24.905Z,100146.28
2022-08-09T05:24:00.677Z,100190.59
2022-08-09T05:26:36.646Z,100218.63
2022-08-09T05:29:17.351Z,100197.19
2022-08-09T05:31:49.327Z,100200.72
2022-08-09T05:34:23.387Z,100228.66
2022-08-09T05:36:58.460Z,100209.31
2022-08-09T05:39:35.837Z,100206.13
2022-08-09T05:42:18.043Z,100230.69
2022-08-09T05:44:53.176Z,100226.22
2022-08-09T05:47:22.569Z,100236.38
2022-08-09T05:50:29.933Z,100234.72
2022-08-09T05:52:38.694Z,100216.19
2022-08-09T05:55:08.847Z,100207.78
2022-08-09T05:57:51.356Z,100209.81
2022-08-09T06:00:25.965Z,100206.97
2022-08-09T06:02:54.647Z,100188.41
2022-08-09T06:05:31.217Z,100188.63
2022-08-09T06:08:11.649Z,100248.56
2022-08-09T06:10:38.892Z,100253.41
2022-08-09T06:13:12.338Z,100214.88
2022-08-09T06:15:46.719Z,100241.59
2022-08-09T06:18:15.743Z,100249.84
2022-08-09T06:20:43.624Z,100240.41
2022-08-09T06:23:21.608Z,100209.66
2022-08-09T06:25:49.884Z,100230.91
2022-08-09T06:28:22.671Z,100216.28
2022-08-09T06:30:54.521Z,100232.72
2022-08-09T06:33:39.860Z,100246.41
2022-08-09T06:36:09.504Z,100241.31
2022-08-09T06:38:47.265Z,100157.41
2022-08-09T06:41:18.905Z,100254.09
2022-08-09T06:43:47.781Z,100253.88
2022-08-09T06:46:39.549Z,100252.66
2022-08-09T06:49:03.271Z,100261.56
2022-08-09T06:51:30.957Z,100238.50
2022-08-09T06:54:00.853Z,100247.47
2022-08-09T06:56:30.865Z,100236.13
2022-08-09T07:00:52.719Z,100223.97
2022-08-09T07:01:57.961Z,100248.47
2022-08-09T07:04:27.046Z,100270.31
2022-08-09T07:07:00.335Z,100172.22
2022-08-09T07:09:55.277Z,100246.34
2022-08-09T07:12:18.702Z,100274.25
2022-08-09T07:14:51.416Z,100208.97
2022-08-09T07:17:21.457Z,100256.94
2022-08-09T07:19:50.788Z,100230.25
2022-08-09T07:22:34.429Z,100279.16
2022-08-09T07:25:05.378Z,100284.63
2022-08-09T07:27:43.210Z,100283.91
2022-08-09T07:30:21.857Z,100286.84
2022-08-09T07:32:51.751Z,100268.19
2022-08-09T07:35:19.461Z,100249.97
2022-08-09T07:37:49.270Z,100289.34
2022-08-09T07:40:20.778Z,100224.66
2022-08-09T07:42:56.452Z,100295.50
2022-08-09T07:45:39.270Z,100243.72
2022-08-09T07:48:22.597Z,100239.81
2022-08-09T07:51:09.865Z,100280.00
2022-08-09T07:54:05.507Z,100289.56
2022-08-09T07:56:34.100Z,100253.19
2022-08-09T07:59:01.910Z,100291.22
2022-08-09T08:01:32.975Z,100252.81
2022-08-09T08:04:01.580Z,100265.56
2022-08-09T08:06:32.210Z,100195.28
2022-08-09T08:09:05.020Z,100286.97
2022-08-09T08:12:12.019Z,100284.84
2022-08-09T08:14:21.236Z,100288.28
2022-08-09T08:17:07.831Z,100298.31
2022-08-09T08:19:36.305Z,100297.28
2022-08-09T08:22:04.851Z,100233.66
2022-08-09T08:24:35.210Z,100292.44
2022-08-09T08:27:16.899Z,100267.81
2022-08-09T08:29:48.709Z,100297.13
2022-08-09T08:32:24.302Z,100304.66
2022-08-09T08:35:05.213Z,100289.44
2022-08-09T08:37:41.412Z,100212.28
2022-08-09T08:40:19.336Z,100296.03
2022-08-09T08:42:47.205Z,100294.13
2022-08-09T08:45:16.754Z,100286.22
2022-08-09T08:47:46.241Z,100208.34
2022-08-09T08:50:18.111Z,100277.19
2022-08-09T08:52:59.440Z,100294.94
2022-08-09T08:55:28.222Z,100293.09
2022-08-09T08:57:56.878Z,100255.69
2022-08-09T09:00:30.022Z,100311.94
2022-08-09T09:03:11.363Z,100257.41
2022-08-09T09:05:59.695Z,100318.97
2022-08-09T09:08:37.799Z,100295.19
2022-08-09T09:11:17.264Z,100204.72
2022-08-09T09:13:55.383Z,100215.34
2022-08-09T09:16:31.241Z,100310.16
2022-08-09T09:21:59.490Z,100302.91
2022-08-09T09:24:29.308Z,100303.53
2022-08-09T09:26:59.030Z,100295.34
2022-08-09T09:30:08.527Z,100246.69
2022-08-09T09:32:34.162Z,100312.72
2022-08-09T09:35:02.462Z,100309.63
2022-08-09T09:37:32.022Z,100304.09
2022-08-09T09:40:00.679Z,100275.03
2022-08-09T09:42:30.912Z,100300.78
2022-08-09T09:45:08.155Z,100314.50
2022-08-09T09:47:47.721Z,100312.81
2022-08-09T09:50:17.620Z,100315.53
2022-08-09T09:52:56.470Z,100292.78
2022-08-09T09:55:31.938Z,100316.75
2022-08-09T09:58:17.948Z,100298.63
2022-08-09T10:00:59.797Z,100269.53
2022-08-09T10:03:58.084Z,100310.22
2022-08-09T10:06:32.330Z,100299.25
2022-08-09T10:09:21.552Z,100260.22
2022-08-09T10:12:15.098Z,100273.78
2022-08-09T10:14:48.405Z,100309.72
2022-08-09T10:17:39.547Z,100313.19
2022-08-09T10:20:27.511Z,100318.28
2022-08-09T10:23:17.380Z,100317.34
2022-08-09T10:26:06.516Z,100248.09
2022-08-09T10:28:35.613Z,100231.59
2022-08-09T10:34:10.874Z,100290.38
2022-08-09T10:36:42.194Z,100301.38
2022-08-09T10:39:15.949Z,100314.06
2022-08-09T10:41:46.202Z,100314.00
2022-08-09T10:44:17.012Z,100311.84
2022-08-09T10:48:14.287Z,100304.13
2022-08-09T10:50:14.763Z,100262.59
2022-08-09T10:52:53.122Z,100273.00
2022-08-09T10:55:35.857Z,100305.25
2022-08-09T10:58:34.791Z,100247.38
2022-08-09T11:03:03.079Z,100259.94
2022-08-09T11:04:27.766Z,100300.41
2022-08-09T11:07:00.961Z,100296.84
2022-08-09T11:09:49.798Z,100300.25
2022-08-09T11:12:20.191Z,100307.34
2022-08-09T11:14:55.887Z,100291.53
2022-08-09T11:17:24.664Z,100299.59
2022-08-09T11:20:11.263Z,100275.69
2022-08-09T11:22:55.450Z,100300.72
2022-08-09T11:25:44.853Z,100296.34
2022-08-09T11:28:34.693Z,100296.69
2022-08-09T11:31:49.252Z,100294.34
2022-08-09T11:34:22.425Z,100246.75
2022-08-09T11:36:50.029Z,100271.00
2022-08-09T11:39:17.039Z,100304.19
2022-08-09T11:41:45.093Z,100294.06
2022-08-09T11:44:13.515Z,100286.38
2022-08-09T11:47:00.962Z,100274.97
2022-08-09T11:50:53.253Z,100289.34
2022-08-09T11:53:15.731Z,100292.56
2022-08-09T11:55:52.201Z,100282.13
2022-08-09T11:58:32.653Z,100302.63
2022-08-09T12:01:15.463Z,100289.41
2022-08-09T12:04:32.217Z,100266.94
2022-08-09T12:07:04.600Z,100281.00
2022-08-09T12:09:37.201Z,100276.44
2022-08-09T12:12:12.304Z,100293.63
2022-08-09T12:15:04.674Z,100282.19
2022-08-09T12:17:44.283Z,100263.47
2022-08-09T12:20:16.736Z,100245.03
2022-08-09T12:22:57.081Z,100275.47
2022-08-09T12:25:34.677Z,100232.28
2022-08-09T12:29:00.102Z,100279.94
2022-08-09T12:31:30.808Z,100275.81
2022-08-09T12:34:10.794Z,100294.31
2022-08-09T12:36:58.634Z,100276.63
2022-08-09T12:39:37.809Z,100197.00
2022-08-09T12:44:57.684Z,100267.13
2022-08-09T12:47:27.077Z,100238.75
2022-08-09T12:50:12.524Z,100199.81
2022-08-09T12:53:09.249Z,100277.94
2022-08-09T12:56:15.113Z,100268.63
2022-08-09T12:58:27.198Z,100267.66
2022-08-09T13:00:55.535Z,100260.22
2022-08-09T13:03:56.931Z,100268.72
2022-08-09T13:06:35.754Z,100196.31
2022-08-09T13:09:21.481Z,100253.97
2022-08-09T13:12:01.650Z,100174.50
2022-08-09T13:14:43.996Z,100240.44
2022-08-09T13:17:43.912Z,100249.66
2022-08-09T13:20:14.279Z,100252.88
2022-08-09T13:23:05.323Z,100215.53
2022-08-09T13:25:54.693Z,100243.72
2022-08-09T13:28:34.627Z,100230.75
2022-08-09T13:32:12.464Z,100235.03
2022-08-09T13:33:55.193Z,100248.91
2022-08-09T13:36:42.250Z,100165.75
2022-08-09T13:41:19.428Z,100174.34
2022-08-09T13:42:05.214Z,100200.97
2022-08-09T13:44:33.847Z,100234.56
2022-08-09T13:47:27.452Z,100236.81
2022-08-09T13:49:57.316Z,100239.38
2022-08-09T13:52:28.299Z,100197.84
2022-08-09T13:55:00.630Z,100223.22
2022-08-09T13:57:40.167Z,100208.81
2022-08-09T14:00:14.068Z,100183.34
2022-08-09T14:03:17.070Z,100223.19
2022-08-09T14:06:01.355Z,100215.63
2022-08-09T14:08:20.824Z,100225.28
2022-08-09T14:10:51.921Z,100221.59
2022-08-09T14:14:15.012Z,100220.84
2022-08-09T14:16:11.572Z,100206.06
2022-08-09T14:18:45.068Z,100159.16
2022-08-09T14:21:18.014Z,100202.84
2022-08-09T14:23:55.047Z,100169.19
2022-08-09T14:26:32.720Z,100209.59
2022-08-09T14:29:25.758Z,100163.19
2022-08-09T14:31:56.011Z,100204.31
2022-08-09T14:34:31.872Z,100133.38
2022-08-09T14:37:06.682Z,100209.72
2022-08-09T14:39:40.578Z,100155.75
2022-08-09T14:42:28.870Z,100204.88
2022-08-09T14:46:46.014Z,100094.09
2022-08-09T14:47:49.542Z,100213.50
2022-08-09T14:50:24.511Z,100116.28
2022-08-09T14:52:51.459Z,100195.41
2022-08-09T14:55:20.217Z,100158.41
2022-08-09T14:57:48.982Z,100205.34
2022-08-09T15:00:16.517Z,100169.75
2022-08-09T15:02:47.307Z,100200.38
2022-08-09T15:05:18.682Z,100178.28
2022-08-09T15:07:56.527Z,100184.13
2022-08-09T15:10:28.750Z,100198.06
2022-08-09T15:12:59.742Z,100139.53
2022-08-09T15:15:28.999Z,100169.06
2022-08-09T15:17:56.648Z,100136.09
2022-08-09T15:21:54.617Z,100188.38
2022-08-09T15:24:02.619Z,100151.69
2022-08-09T15:25:59.686Z,100159.91
2022-08-09T15:28:27.803Z,100158.84
2022-08-09T15:31:08.664Z,100169.09
2022-08-09T15:34:18.132Z,100126.09
2022-08-09T15:36:29.258Z,100111.72
2022-08-09T15:38:58.915Z,100172.66
2022-08-09T15:41:32.090Z,100169.09
2022-08-09T15:44:03.821Z,100120.41
2022-08-09T15:46:33.437Z,100173.06
2022-08-09T15:49:22.253Z,100169.88
2022-08-09T15:52:04.997Z,100180.56
2022-08-09T15:54:48.974Z,100172.25
2022-08-09T15:57:34.327Z,100129.41
2022-08-09T16:00:14.947Z,100161.59
2022-08-09T16:02:54.065Z,100148.41
2022-08-09T16:05:23.183Z,100127.75
2022-08-09T16:07:50.583Z,100169.06
2022-08-09T16:10:55.092Z,100074.84
2022-08-09T16:13:05.465Z,100146.88
2022-08-09T16:16:10.911Z,100089.31
2022-08-09T16:18:35.443Z,100134.47
2022-08-09T16:21:02.256Z,100142.69
2022-08-09T16:23:32.133Z,100082.34
2022-08-09T16:26:02.577Z,100085.94
2022-08-09T16:28:29.810Z,100152.28
2022-08-09T16:30:58.702Z,100143.16
2022-08-09T16:33:26.745Z,100164.09
2022-08-09T16:35:59.702Z,100155.22
2022-08-09T16:38:29.653Z,100170.84
2022-08-09T16:40:59.203Z,100164.38
2022-08-09T16:43:31.091Z,100116.66
2022-08-09T16:45:58.069Z,100152.38
2022-08-09T16:48:50.222Z,100142.00
2022-08-09T16:51:14.488Z,100147.84
2022-08-09T16:56:36.518Z,100118.59
2022-08-09T16:59:10.538Z,100119.06
2022-08-09T17:01:38.844Z,100092.34
2022-08-09T17:04:06.608Z,100110.13
2022-08-09T17:07:03.952Z,100154.63
2022-08-09T17:09:44.476Z,100146.53
2022-08-09T17:12:11.583Z,100050.31
2022-08-09T17:14:38.621Z,100147.41
2022-08-09T17:17:26.020Z,100112.75
2022-08-09T17:20:32.809Z,100147.66
2022-08-09T17:22:52.003Z,100069.41
2022-08-09T17:25:23.875Z,100141.50
2022-08-09T17:27:54.438Z,100143.16
2022-08-09T17:30:28.429Z,100123.44
2022-08-09T17:33:01.346Z,100112.75
2022-08-09T17:35:41.352Z,100111.94
2022-08-09T17:38:31.991Z,100113.91
2022-08-09T17:41:01.268Z,100141.50
2022-08-09T17:43:37.167Z,100113.28
2022-08-09T17:46:08.687Z,100096.13
2022-08-09T17:48:39.783Z,100092.00
2022-08-09T17:51:18.821Z,100150.81
2022-08-09T17:53:53.636Z,100149.53
2022-08-09T17:56:26.844Z,100106.97
2022-08-09T17:58:55.536Z,100131.69
2022-08-09T18:01:23.623Z,100128.88
2022-08-09T18:03:54.315Z,100152.75
2022-08-09T18:06:32.257Z,100112.41
2022-08-09T18:09:03.439Z,100138.88
2022-08-09T18:12:04.870Z,100152.81
2022-08-09T18:14:21.029Z,100102.94
2022-08-09T18:16:48.844Z,100058.81
2022-08-09T18:20:55.738Z,100139.06
2022-08-09T18:22:04.495Z,100071.03
2022-08-09T18:24:31.415Z,100138.97
2022-08-09T18:27:01.376Z,100119.81
2022-08-09T18:30:42.422Z,100150.06
2022-08-09T18:32:19.078Z,100171.66
2022-08-09T18:34:48.333Z,100112.81
2022-08-09T18:37:46.913Z,100173.75
2022-08-09T18:40:02.789Z,100151.88
2022-08-09T18:42:30.577Z,100150.56
2022-08-09T18:45:01.047Z,100165.59
2022-08-09T18:47:37.124Z,100153.56
2022-08-09T18:50:08.983Z,100115.63
2022-08-09T18:52:39.372Z,100124.78
2022-08-09T18:55:13.684Z,100159.66
2022-08-09T18:57:44.859Z,100116.72
2022-08-09T19:00:16.688Z,100132.25
2022-08-09T19:02:47.418Z,100153.97
2022-08-09T19:05:28.271Z,100193.66
2022-08-09T19:08:10.064Z,100176.75
2022-08-09T19:10:39.593Z,100185.47
2022-08-09T19:13:21.931Z,100178.59
2022-08-09T19:15:55.477Z,100125.63
2022-08-09T19:18:36.605Z,100166.22
2022-08-09T19:21:09.894Z,100135.97
2022-08-09T19:24:33.205Z,100116.41
2022-08-09T19:26:31.433Z,100134.56
2022-08-09T19:29:03.132Z,100173.88
2022-08-09T19:31:44.270Z,100127.97
2022-08-09T19:34:21.205Z,100199.34
2022-08-09T19:36:52.187Z,100195.03
2022-08-09T19:39:21.055Z,100198.75
2022-08-09T19:42:06.902Z,100149.13
2022-08-09T19:44:34.273Z,100137.47
2022-08-09T19:47:02.063Z,100141.59
2022-08-09T19:50:09.513Z,100201.22
2022-08-09T19:52:18.291Z,100190.47
2022-08-09T19:54:45.337Z,100178.56
2022-08-09T19:57:12.387Z,100119.50
2022-08-09T19:59:59.422Z,100142.31
2022-08-09T20:04:11.624Z,100155.53
2022-08-09T20:05:16.673Z,100149.31
2022-08-09T20:07:59.716Z,100189.03
2022-08-09T20:10:36.536Z,100166.91
2022-08-09T20:13:09.626Z,100134.91
2022-08-09T20:16:33.755Z,100202.84
2022-08-09T20:18:27.951Z,100206.72
2022-08-09T20:20:59.354Z,100208.19
2022-08-09T20:23:39.195Z,100131.13
2022-08-09T20:26:10.041Z,100226.50
2022-08-09T20:28:48.559Z,100178.41
2022-08-09T20:31:17.584Z,100221.16
2022-08-09T20:33:52.410Z,100220.06
2022-08-09T20:36:27.875Z,100133.19
2022-08-09T20:39:28.059Z,100225.25
2022-08-09T20:41:49.104Z,100201.44
2022-08-09T20:44:16.156Z,100210.56
2022-08-09T20:46:53.398Z,100203.72
2022-08-09T20:49:20.483Z,100238.44
2022-08-09T20:51:50.826Z,100199.22
2022-08-09T20:54:18.126Z,100231.25
2022-08-09T20:56:49.509Z,100230.53
2022-08-09T21:00:19.091Z,100243.94
2022-08-09T21:02:09.055Z,100236.47
2022-08-09T21:05:51.070Z,100251.34
2022-08-09T21:07:30.037Z,100224.56
2022-08-09T21:10:06.220Z,100226.56
2022-08-09T21:12:37.849Z,100235.69
2022-08-09T21:15:05.735Z,100231.22
2022-08-09T21:18:23.697Z,100232.75
2022-08-09T21:20:26.850Z,100141.97
2022-08-09T21:22:57.142Z,100205.97
2022-08-09T21:25:44.252Z,100187.53
2022-08-09T21:28:33.476Z,100239.75
2022-08-09T21:31:13.520Z,100235.84
2022-08-09T21:33:51.831Z,100225.69
2022-08-09T21:36:28.113Z,100226.88
2022-08-09T21:38:59.917Z,100239.97
2022-08-09T21:42:03.777Z,100216.13
2022-08-09T21:44:32.970Z,100189.81
2022-08-09T21:47:03.681Z,100222.88
2022-08-09T21:49:39.380Z,100175.66
2022-08-09T21:52:08.145Z,100180.59
2022-08-09T21:54:59.526Z,100225.13
2022-08-09T21:57:38.519Z,100232.44
2022-08-09T22:00:32.512Z,100223.84
2022-08-09T22:03:05.518Z,100216.84
2022-08-09T22:05:42.169Z,100226.22
2022-08-09T22:08:14.683Z,100205.88
2022-08-09T22:11:50.465Z,100217.94
2022-08-09T22:13:35.479Z,100109.66
2022-08-09T22:16:08.333Z,100166.78
2022-08-09T22:18:52.220Z,100197.38
2022-08-09T22:21:24.435Z,100217.47
2022-08-09T22:24:00.150Z,100219.63
2022-08-09T22:26:34.960Z,100216.53
2022-08-09T22:29:07.452Z,100221.47
2022-08-09T22:31:36.541Z,100190.78
2022-08-09T22:34:03.579Z,100165.00
2022-08-09T22:36:46.197Z,100225.41
2022-08-09T22:39:47.162Z,100176.34
2022-08-09T22:42:02.964Z,100212.16
2022-08-09T22:44:32.786Z,100192.91
2022-08-09T22:48:10.396Z,100207.94
2022-08-09T22:49:47.527Z,100160.75
2022-08-09T22:52:19.719Z,100146.34
2022-08-09T22:54:48.094Z,100194.09
2022-08-09T22:57:15.437Z,100178.47
2022-08-09T22:59:56.158Z,100145.16
2022-08-09T23:02:27.309Z,100179.19
2022-08-09T23:04:55.508Z,100189.00
2022-08-09T23:08:21.262Z,100178.47
2022-08-09T23:10:32.210Z,100178.75
2022-08-09T23:12:59.651Z,100178.84
2022-08-09T23:15:28.293Z,100118.94
2022-08-09T23:17:56.155Z,100077.38
2022-08-09T23:20:24.192Z,100126.03
2022-08-09T23:22:51.001Z,100153.06
2022-08-09T23:25:17.972Z,100151.78
2022-08-09T23:27:58.443Z,100159.19
2022-08-09T23:30:31.837Z,100157.44
2022-08-09T23:33:00.867Z,100158.25
2022-08-09T23:35:27.710Z,100118.72
2022-08-09T23:37:54.499Z,100120.34
2022-08-09T23:40:21.481Z,100135.69
2022-08-09T23:42:48.311Z,100059.09
2022-08-09T23:45:36.379Z,100146.31
2022-08-09T23:48:06.749Z,100098.88
2022-08-09T23:50:35.642Z,100037.50
2022-08-09T23:53:02.566Z,100050.34
2022-08-09T23:55:30.402Z,100135.81
2022-08-09T23:58:10.694Z,100127.28
